Oconto, Wisconsin
Current Conditions -  °F | °C
As of 5:55 PM on Saturday 25 Oct 2014 (Local Time) from KOCQ Reporting Station
Clear Clear  
Wind Chill: 58°   Ceiling: Unl
Heat Index: 58°   Visibility: 10mi
Dew Point: 27°   Wind: 8mph
Humidity: 30%   Direction: 290°WNW
Pressure: 29.82"   Gusts: NA
Location:  44.89°N, 87.86°W
Report Text: KOCQ 252255Z AUTO 29007KT 10SM CLR 15/M03 A2982 RMK AO1 T01461027
Loading
Personal Weather Stations






























Interactive Weather Map New forecast layout! Learn more

10-Day Weather Forecast

Advertisements
Track Severe Weather on mobile